NWS Home NWS Lubbock West Texas Mesonet Day over Day changes as of 1239 PM, Sat Sep 26, 2020

Latest   N   C   S   Daily Sum   3hrΔ   24hrΔ   Soil Data 
Site Map   24hr Precip   72hr Precip   Google Plot


Station Time of Last Temp Today Temp Yesterday Delta-T Dewpoint Today Dewpoint Yesterday Delta-Td Delta-Pressure (mB)
Reese Center  12:35 PM 87.2 89.7 -2.6 51.2 44 7.1 -3.9
Abernathy  12:35 PM 86.7 89.8 -3.1 55.4 46.3 9.1 -3.9
Plainview  12:35 PM 87.2 88.6 -1.4 49.4 46.8 2.6 -3.9
Tahoka  12:35 PM 87.4 89.6 -2.2 58.5 42.5 16 -3.7
Slaton  12:35 PM 87.3 90.3 -3 56.4 44.9 11.6 -3.8
Levelland  12:35 PM 87 89.8 -2.8 52.3 43.3 9 -3.9
Roaring Springs  12:35 PM 90.2 93.7 -3.5 54.3 37.4 16.9 -3.3
Floydada  12:35 PM 88.9 91.2 -2.2 52.2 42.7 9.4 -3.9
Ralls  12:35 PM 86.8 89 -2.1 52.4 38.3 14.1 -3.8
Brownfield  12:35 PM 86 89.6 -3.5 51.3 43.7 7.6 -3.7
Muleshoe  12:35 PM 91.1 91.7 -0.5 31.3 35.2 -3.9 -3.8
Morton  12:35 PM 94.5 90.7 3.7 29.1 35.5 -6.4 -3.8
Comanche Springs  12:35 PM 86.3 85.4 0.9 63.4 60 3.4 -3.4
O'Donnell  12:35 PM 85.7 88.6 -3 58.1 41.1 17 -3.7
Seagraves  12:35 PM 86.2 89.6 -3.4 53.4 42.8 10.7 -3.7
Amherst  12:35 PM 88.5 90.8 -2.3 41 40.7 0.3 -3.7
Plains  12:35 PM 95.6 88.7 7 32.9 39.6 -6.7 -3.9
Lamesa  12:35 PM 86.4 88.4 -2 56.3 31.1 25.1 -3.6
Hart  12:35 PM 84.8 89.9 -5 49.1 42.3 6.8 -3.5
Friona  12:35 PM 92.7 90.5 2.2 34.1 42.7 -8.6 -3.7
Dimmitt  12:35 PM 85.5 89.7 -4.2 43.3 41.3 2 -3.5
Tulia  12:35 PM 86.6 90.7 -4.1 50 46.3 3.7 -3.5
Silverton  12:35 PM 91.6 92.6 -1 48.1 44.4 3.7 -3.8
Post  12:35 PM 88 91.8 -3.7 55.1 35.4 19.7 -3.5
Seminole  12:35 PM 87.5 88.9 -1.4 50.6 45.4 5.2 -3.6
Gail  12:35 PM 87.1 90.3 -3.1 58.2 37.4 20.8 -3.6
White River Lake  12:35 PM 87.5 92.2 -4.7 58.6 40 18.6 -3.5
Graham  12:35 PM 84.4 88.7 -4.3 57 35.9 21.1 -3.5
Sundown  12:35 PM 93.3 90.9 2.4 40.6 34.1 6.5 -4
Anton  12:35 PM 87.4 90.4 -3.1 51.7 43.3 8.5 -3.8
Fluvanna  12:35 PM 84.4 87.6 -3.2 60.1 44.6 15.5 -3.4
Spur  12:35 PM 87.4 92.4 -5 57.6 45.8 11.7 -3.2
Northwest Lubbock  12:35 PM 88.5 90.7 -2.2 51.2 46.3 4.8 -4
Guthrie  12:35 PM 89.6 94.8 -5.3 57.1 39.3 17.8 -3.1
Clarendon  12:35 PM 89.2 91.7 -2.5 53.8 48.8 5 -3.5
Paducah  12:35 PM 91.1 94.5 -3.4 54.6 46.7 7.9 -3
Snyder  12:35 PM 84.4 86.2 -1.8 63.6 54.1 9.5 -3.5
Memphis  12:35 PM 88.2 91.1 -3 55.9 48.9 7 -3.3
Jayton  12:35 PM 88.3 91.4 -3.1 62.4 49.5 12.9 -3.4
Pampa  12:35 PM 89.6 93.4 -3.8 51.6 44.6 7 -3.3
Aspermont  12:35 PM 85.8 85.8 0 66.3 61 5.4 -3.6
Hereford  12:35 PM 88.7 90.4 -1.7 38 43.2 -5.3 -3.3
Goodlett  12:35 PM 88.3 87.2 1.1 61.1 57.3 3.8 -3.4
McLean  12:35 PM 87.7 92 -4.3 54.8 51 3.8 -3.4
Denver City  12:35 PM 94.4 89.7 4.6 37.1 40.2 -3 -3.8
Lake Alan Henry  12:35 PM 85.7 91.3 -5.7 60.5 46.4 14.1 -3.3
Wolfforth  12:35 PM 86.4 88.8 -2.4 51.1 46.3 4.8 -3.8
Andrews  12:35 PM 90.8 89.2 1.6 45.1 39.8 5.4 -3.7
Turkey  12:35 PM 91.6 94.4 -2.8 53.5 44.5 9 -3.6
Childress  12:35 PM 89.9 87.3 2.6 57.2 55.5 1.7 -3.5
Tatum  12:35 PM 93.1 91.2 1.9 29.1 34.6 -5.5 -3.3
Northfield  12:35 PM 94.4 98 -3.6 44.5 34.5 10.1 -3.4
Dora  12:35 PM 90.2 89.4 0.9 32.6 41.5 -8.9 -3.1
Northwest San Angelo  12:35 PM 83.6 84 -0.3 65.1 61.8 3.3 -2.9
Saint Lawrence  12:35 PM 82.7 85 -2.2 63.3 48.2 15 -3.3
Haskell  12:35 PM 82.8 84.8 -2 65.2 59.8 5.4 -3.2
Wall  12:35 PM 82.6 83.5 -0.9 66.5 61.7 4.9 -2.9
Seymour  12:35 PM 86.3 83.8 2.4 65.3 63.8 1.5 -3.2
Guadalupe Mtns Park  12:35 PM 83 85.8 -2.8 34 34.5 -0.4 -1.7
Caprock Canyons   12:35 PM 92 93.7 -1.7 51 39.8 11.3 -3.8
Odell  12:35 PM 85 83.1 1.9 64.5 62.1 2.4 -3.2
Coyanosa  12:35 PM 89.3 86.1 3.2 55.2 51.2 4 -3.6
Big Lake  12:35 PM 79.1 82.3 -3.2 65.3 58.6 6.7 -3
Junction  12:35 PM 79 82.1 -3.1 66.6 65.7 0.9 -2.1
Hobbs  12:35 PM 94.4 87.1 7.3 30.8 36.5 -5.6 -3.7
Canadian  12:35 PM 93.1 97.1 -3.9 53.6 50.9 2.6 -3.2
Palo Duro Canyon State Park Rim  12:35 PM 89.2 93.1 -3.9 48.8 42.6 6.1 -3.3
Bootleg  12:35 PM 91.8 87.6 4.2 28.5 41.3 -12.7 -3.3
Sterling City  12:35 PM 84.5 86.7 -2.2 65.4 51.7 13.7 -3.2
Mertzon  12:35 PM 82.4 83.4 -1 67.1 62.4 4.7 -3.2
Persimmon Gap  12:35 PM 88.8 84 4.8 56.2 56.1 0.1 -2.8
Weinert  12:35 PM 84.6 84.4 0.2 66.3 59.2 7 -3.2
Claude 12 Southwest  12:35 PM 87.5 91.1 -3.7 48.1 44.9 3.2 -3.5
Amarillo 7 South Southeast  12:35 PM 86.9 92.5 -5.6 46.9 39.5 7.4 -3.1
Umbarger  12:35 PM 87.7 91.7 -4 44.7 44.2 0.5 -3.2
Lomax  12:35 PM 84.1 86.7 -2.6 63.6 46.4 17.2 -3.5
Amarillo 9 North Northeast  12:35 PM 87.1 91 -3.9 48.4 47.2 1.1 -3
Aiken  12:35 PM 88.9 92 -3.2 53.6 45.8 7.8 -3.9
Sweetwater  12:35 PM 80.1 83.1 -3.1 66.7 56.1 10.5 -3.5
Dozier  12:35 PM 89.2 94.6 -5.4 57.4 52.7 4.7 -3.1
Amarillo 15 North Northwest  12:35 PM 87.6 93.5 -5.9 42.6 44.1 -1.5 -3
Menard  12:35 PM 80.6 81.6 -1 67.2 63.1 4.2 -2.2
Tarzan  12:35 PM 88 88.1 -0.1 59 36.5 22.5 -3.6
Goodnight  12:35 PM 89.5 92.5 -3 52.5 47.3 5.1 -3.5
Boys Ranch   12:35 PM 89.3 90.6 -1.3 39.4 45.1 -5.7 -21.4
Fort McKavett  12:35 PM 80.9 82.1 -1.2 67.1 62.9 4.2 -2.4
Fort Chadbourne  12:35 PM 82.3 81.3 1 67.6 60.9 6.7 -3.2
Palo Duro Canyon State Park Floor  12:35 PM 92.7 95.7 -3 49.6 45.4 4.1 -3.5
Fort Lancaster  12:35 PM 80.4 83.4 -2.9 67.9 62.6 5.3 -2.6
Dell City 1N  12:30 PM 82 81.1 0.9 41.7 51 -9.3 -2.2
Clyde  02:10 PM 87.7 78.8 8.9 59.5 60.8 -1.3 -0.7
Snyder SSW  12:35 PM 82.5 86.1 -3.7 65.7 53.3 12.4 -3.6
Panhandle  12:35 PM 87.6 92 -4.4 48.5 46 2.4 -3.1
Vigo Park  12:35 PM 89.1 91.2 -2.1 49.4 48 1.4 -3.7
Welch  12:35 PM 87 89.2 -2.2 57.4 48 9.3 -3.6
Throckmorton  12:35 PM 85.7 83.1 2.6 68.6 64.5 4 -3.2
Sierra Blanca  12:35 PM 87 85.5 1.5 35.3 41.8 -6.5 -1.5
Fort Lewis CO  12:35 PM 71.9 75.2 -3.3 29.7 36.2 -6.5 -1.2
New Home  12:35 PM 86.9 88.7 -1.9 57 45.6 11.4 -3.8
McCamey  12:35 PM 83.4 84.1 -0.7 65 57 8 -3.2
Stamford  12:35 PM 82.4 84.2 -1.8 67.2 60.9 6.2 -3.1
Crowell  12:35 PM 85.6 86.2 -0.6 64.5 61.4 3.1 -3.3
Stinnett  12:35 PM 86.9 89.7 -2.8 47.2 49.7 -2.6 -3.1
Colorado City  12:35 PM 85.7 85.8 -0.1 65.8 58.7 7.1 -3.5
Happy  12:35 PM 86.1 91.3 -5.2 49.5 46.2 3.3 -3.4
Endee  12:35 PM 92.5 89 3.5 34 41.9 -7.9 -3.2
JA Ranch  12:35 PM 93.8 95.1 -1.3 56.5 50.6 5.9 -3.6
Adrian  12:35 PM 87.5 87.4 0.1 32.4 43.5 -11.1 -3.1
Lesley  12:35 PM 93.1 96.3 -3.2 57.3 50.3 7 -3.3
Earth  12:35 PM 90.7 91.1 -0.4 37.6 41.6 -4 -3.7
Van Horn  12:35 PM 92.2 86.3 5.9 36.2 46.8 -10.6 -2.3
Rotan  12:35 PM 86.5 87.7 -1.2 65.6 55.1 10.5 -3.4
Fritch  12:35 PM 87.1 91.6 -4.5 49.1 47.6 1.5 -2.7
Estelline  12:35 PM 93.4 93.8 -0.4 56.9 55.7 1.3 -3.4
Crane  12:35 PM 85.9 86.7 -0.8 61.5 48.5 12.9 -3.3
Hackberry  12:35 PM 88.9 89.4 -0.6 62.4 58.2 4.2 -3.4
Romero 11SSW  12:35 PM 91.9 84.8 7.1 36.1 42.4 -6.4 -3.4
Palo Duro Reservoir 1NW  12:35 PM 89.9 93.7 -3.8 45.7 47.7 -2 -2.9
South Plains 3ENE  12:35 PM 90.2 91.3 -1.1 52.2 45.1 7.1 -4
Lake McClellan 2NW  12:35 PM 87.7 91.5 -3.9 53.1 48.5 4.6 -3.4
Segovia 7SSW  12:35 PM 77.5 80.1 -2.6 66.1 63.4 2.7 -2.2
Castolon 1NW BBNP  12:35 PM 90.4 87.3 3.1 54.3 56.6 -2.3 -2.8
Smyer  12:35 PM 86.1 88.7 -2.6 52.5 45.5 7 -3.8
Doole 3WNW  12:35 PM 85.4 85.8 -0.4 66.4 60.2 6.2 -2.5
Stratford  12:35 PM 92.3 87.4 4.9 41.1 48.5 -7.4 -3
Truscott  12:35 PM 86.7 87.6 -0.9 64.1 57.8 6.3 -3.2
Hefner  12:35 PM 85.3 85.3 -0.1 65.4 60.9 4.5 -3.1
Kent I10-I20 Split  12:35 PM 91.9 87.6 4.4 39.3 42.7 -3.4 -2.5
Olton  12:35 PM 85 90 -5 53.3 43.9 9.4 -3.5
McAdoo  12:35 PM 86.5 91.5 -5 57 35.3 21.8 -3.5
Borger  12:35 PM 89.4 94.6 -5.2 46.1 42.6 3.5 -3

West Texas Mesonet Home   Site Map/Menu  NWS Lubbock Soil Data  Daily Summary Page  24hr Precip  72hr Precip  Google Plot